Terminal Aerodrome Forecast
Issued by NWS

Home | Current Version | Previous Version | Text Only | Print | Product List | Glossary On
Versions: 1 2 3 4 5 6 7 8 9 10 11 12 13 14 15 16 17 18 19 20 21
000
FTUS45 KTFX 281700
TAFBZN
TAF
KBZN 281726Z 2818/2918 33005KT 1SM -SN OVC020
      TEMPO 2818/2822 3/4SM -SN BR OVC008
     FM290300 35006KT 6SM -SN BKN040 PROB30 2903/2906 29006KT 1SM
      -SN BKN012=

USA.gov is the U.S. government's official web portal to all federal, state and local government web resources and services.